Mulhall, Oklahoma
Current Conditions -  °F | °C
As of 10:53 AM on Friday 31 Oct 2014 (Local Time) from KGOK Reporting Station
Clear Clear  
Wind Chill: 51°   Ceiling: Unl
Heat Index: 51°   Visibility: 10mi
Dew Point: 37°   Wind: 14mph
Humidity: 59%   Direction: 30°NNE
Pressure: 30.44"   Gusts: 21mph
Location:  36.06°N, 97.41°W
Report Text: KGOK 311553Z AUTO 03012G18KT 10SM CLR 11/03 A3044 RMK AO2 SLP310 T01060028
Loading
Personal Weather Stations






























Interactive Weather Map
Tropical Storm Tracking
New forecast layout! Learn more

10-Day Weather Forecast

Advertisements
Track Severe Weather on mobile